Flight Track Log - Related Links

Times and Time Zones

All times are in EDT time to prevent confusion due to time zone crossing. See the JAL309 flight status page for this flight to view local times or setup timezone preferences in your user account.

Time Position Orientation Groundspeed Altitude Reporting Facility
EDT Latitude Longitude Course Direction KTS MPH feet Rate Location/Type
Sun 08:43:00 PM 35.4867 139.3934 258° West  Level Estimated
Sun 08:44:00 PM 35.4645 139.2648 258° West  Level Estimated
Sun 08:45:00 PM 35.4423 139.1362 258° West  Level Estimated
Sun 08:46:00 PM 35.4199 139.0077 258° West  Level Estimated
Sun 08:47:00 PM 35.3973 138.8793 258° West  Level Estimated
Sun 08:48:00 PM 35.3764 138.7606 258° West  Level Estimated
Sun 08:49:00 PM 35.3553 138.6419 258° West  Level Estimated
Sun 08:50:00 PM 35.3340 138.5233 258° West  Level Estimated
Sun 08:51:00 PM 35.3127 138.4048 258° West  Level Estimated
Sun 08:52:00 PM 35.2913 138.2863 258° West  Level Estimated
Sun 08:53:00 PM 35.2697 138.1679 257° West  Level Estimated
Sun 08:54:00 PM 35.2481 138.0495 257° West  Level Estimated
Sun 08:55:00 PM 35.2263 137.9313 257° West  Level Estimated
Sun 08:56:00 PM 35.2044 137.8130 257° West  Level Estimated
Sun 08:57:00 PM 35.1824 137.6949 257° West  Level Estimated
Sun 08:58:00 PM 35.1603 137.5768 257° West  Level Estimated
Sun 08:59:00 PM 35.1380 137.4588 257° West  Level Estimated
Sun 09:00:00 PM 35.1157 137.3408 257° West  Level Estimated
Sun 09:01:00 PM 35.0932 137.2229 257° West  Level Estimated
Sun 09:02:00 PM 35.0706 137.1051 257° West  Level Estimated
Sun 09:03:00 PM 35.0479 136.9873 257° West  Level Estimated
Sun 09:04:00 PM 35.0236 136.8618 257° West  Level Estimated
Sun 09:05:00 PM 34.9991 136.7363 257° West  Level Estimated
Sun 09:06:00 PM 34.9745 136.6109 257° West  Level Estimated
Sun 09:07:00 PM 34.9498 136.4856 257° West  Level Estimated
Sun 09:08:00 PM 34.9249 136.3603 256° West  Level Estimated
Sun 09:09:00 PM 34.8999 136.2352 256° West  Level Estimated
Sun 09:10:00 PM 34.8748 136.1101 256° West  Level Estimated
Sun 09:11:00 PM 34.8496 135.9850 256° West  Level Estimated
Sun 09:12:00 PM 34.8242 135.8601 256° West  Level Estimated
Sun 09:13:00 PM 34.7987 135.7352 256° West  Level Estimated
Sun 09:14:00 PM 34.7731 135.6105 256° West  Level Estimated
Sun 09:15:00 PM 34.7474 135.4858 256° West  Level Estimated
Sun 09:16:00 PM 34.7215 135.3611 256° West  Level Estimated
Sun 09:17:00 PM 34.6955 135.2366 256° West  Level Estimated
Sun 09:18:00 PM 34.6694 135.1121 256° West  Level Estimated
Sun 09:19:00 PM 34.6431 134.9877 256° West  Level Estimated
Sun 09:20:00 PM 34.6167 134.8634 256° West  Level Estimated
Sun 09:21:00 PM 34.5902 134.7392 256° West  Level Estimated
Sun 09:22:00 PM 34.5636 134.6150 255° West  Level Estimated
Sun 09:23:00 PM 34.5368 134.4909 255° West  Level Estimated
Sun 09:24:00 PM 34.5099 134.3669 255° West  Level Estimated
Sun 09:25:00 PM 34.4829 134.2430 255° West  Level Estimated
Sun 09:26:00 PM 34.4558 134.1192 255° West  Level Estimated
Sun 09:27:00 PM 34.4286 133.9954 255° West  Level Estimated
Sun 09:28:00 PM 34.4012 133.8718 255° West  Level Estimated
Sun 09:29:00 PM 34.3737 133.7482 255° West  Level Estimated
Sun 09:30:00 PM 34.3456 133.6230 255° West  Level Estimated
Sun 09:31:00 PM 34.3175 133.4979 255° West  Level Estimated
Sun 09:32:00 PM 34.2893 133.3729 255° West  Level Estimated
Sun 09:33:00 PM 34.2609 133.2480 255° West  Level Estimated
Sun 09:34:00 PM 34.2324 133.1231 255° West  Level Estimated
Sun 09:35:00 PM 34.2037 132.9984 255° West  Level Estimated
Sun 09:36:00 PM 34.1749 132.8737 254° West  Level Estimated
Sun 09:37:00 PM 34.1461 132.7491 254° West  Level Estimated
Sun 09:38:00 PM 34.1170 132.6246 254° West  Level Estimated
Sun 09:39:00 PM 34.0879 132.5002 254° West  Level Estimated
Sun 09:40:00 PM 34.0586 132.3759 254° West  Level Estimated
Sun 09:41:00 PM 34.0292 132.2516 254° West  Level Estimated
Sun 09:42:00 PM 33.9997 132.1274 254° West  Level Estimated
Sun 09:43:00 PM 33.9701 132.0034 254° West  Level Estimated
Sun 09:44:00 PM 33.9403 131.8794 254° West  Level Estimated
Sun 09:45:00 PM 33.9104 131.7555 254° West  Level Estimated
Sun 09:46:00 PM 33.8804 131.6317 254° West  Level Estimated
Sun 09:47:00 PM 33.8503 131.5079 254° West  Level Estimated
Sun 09:48:00 PM 33.8200 131.3843 254° West  Level Estimated
Sun 09:49:00 PM 33.7896 131.2608 254° West  Level Estimated
Sun 09:50:00 PM 33.7591 131.1373 253° West  Level Estimated
Sun 09:51:00 PM 33.7289 131.0156 253° West  Level Estimated
Sun 09:52:00 PM 33.6985 130.8939 253° West  Level Estimated
Sun 09:53:00 PM 33.6681 130.7724 253° West  Level Estimated
Sun 09:54:00 PM 33.6375 130.6509 253° West  Level Estimated
Sun 09:55:00 PM 33.6068 130.5295 253° West  Level Estimated
Sun 09:56:00 PM 33.5866 130.4502 253° West  Level Estimated
Sun 09:57:00 PM 33.5866 130.4502 248° West  Level Estimated
Sun 09:58:00 PM 33.5866 130.4502 248° West  Level Estimated
Sun 09:59:00 PM 33.5866 130.4502 248° West  Level Estimated
Sun 10:00:00 PM 33.5866 130.4502 248° West  Level Estimated
Sun 10:01:00 PM 33.5866 130.4502 248° West  Level Estimated
Sun 10:02:00 PM 33.5866 130.4502 248° West  Level Estimated
Sun 10:03:00 PM 33.5866 130.4502 248° West  Level Estimated
Sun 10:04:00 PM 33.5866 130.4502 248° West  Level Estimated

Login

Don't have an account? Register now (free) for customized features, flight alerts, and more!